Flight Track Log - Related Links

Times and Time Zones

All times are in EDT time to prevent confusion due to time zone crossing. See the DAL2082 flight status page for this flight to view local times or setup timezone preferences in your user account.


Time Position Orientation Groundspeed Altitude Reporting Facility
EDT Latitude Longitude Course Direction KTS MPH feet Rate Location/Type
Tue 12:28:22 PM 26.5008 -81.8981 336° Northwest 250 288 6,000  Level Miami Center
Tue 12:29:00 PM 26.8492 -81.7333 North  Level FlightAware Approximate
Tue 12:29:22 PM 26.5731 -81.9200 345° North 220 253 9,300  Level Miami Center
Tue 12:30:00 PM 26.9550 -81.7333 North  Level FlightAware Approximate
Tue 12:30:22 PM 26.6567 -81.9211 359° North 231 266 11,500  Level Miami Center
Tue 12:31:00 PM 27.0581 -81.7499 340° North  Level FlightAware Approximate
Tue 12:31:22 PM 26.7575 -81.9022 North 302 348 13,300  Level Miami Center
Tue 12:32:00 PM 27.1590 -81.7851 350° North  Level FlightAware Approximate
Tue 12:32:22 PM 26.8575 -81.8483 26° Northeast 348 400 16,000  Level Miami Center
Tue 12:33:00 PM 27.2610 -81.8138 336° Northwest  Level FlightAware Approximate
Tue 12:33:22 PM 26.9600 -81.7806 31° Northeast 382 440 16,900  Level Miami Center
Tue 12:34:22 PM 27.0672 -81.7547 12° North 393 452 17,100 1,350 Climbing Miami Center
Tue 12:35:22 PM 27.1889 -81.7997 342° North 383 441 19,600 2,250 Climbing Miami Center
Tue 12:36:22 PM 27.3006 -81.8347 344° North 403 464 21,600 1,900 Climbing Miami Center
Tue 12:37:22 PM 27.4056 -81.8719 343° North 429 494 23,400 1,850 Climbing Miami Center
Tue 12:38:22 PM 27.5253 -81.9122 343° North 442 509 25,300 1,850 Climbing Miami Center
Tue 12:39:22 PM 27.6569 -81.9628 341° North 442 509 27,100 1,550 Climbing Miami Center
Tue 12:40:22 PM 27.7808 -82.0033 344° North 454 522 28,400 883 Climbing Miami Center
Tue 12:42:39 PM 28.0575 -82.0742 347° North 478 550 30,000 1,036 Climbing Jacksonville Center
Tue 12:43:39 PM 28.1542 -82.1628 321° Northwest 441 507 31,800 1,000 Climbing Jacksonville Center
Tue 12:44:39 PM 28.2483 -82.2469 322° Northwest 441 507 32,000 50 Climbing Jacksonville Center
Tue 12:45:39 PM 28.3450 -82.3336 322° Northwest 441 507 31,900  Descending Jacksonville Center
Tue 12:46:39 PM 28.4392 -82.4206 321° Northwest 441 507 32,000 50 Climbing Jacksonville Center
Tue 12:47:39 PM 28.5353 -82.5075 322° Northwest 441 507 32,000  Level Jacksonville Center
Tue 12:48:38 PM 28.6317 -82.5944 322° Northwest 441 507 32,000 400 Level Jacksonville Center
Tue 12:49:39 PM 28.7300 -82.6772 324° Northwest 447 514 32,800 1,190 Climbing Jacksonville Center
Tue 12:50:39 PM 28.8344 -82.7481 329° Northwest 442 509 34,400 1,400 Climbing Jacksonville Center
Tue 12:51:39 PM 28.9408 -82.8189 330° Northwest 442 509 35,600 1,250 Climbing Jacksonville Center
Tue 12:52:39 PM 29.0494 -82.8903 330° Northwest 442 509 36,900 1,150 Climbing Jacksonville Center
Tue 12:53:39 PM 29.1539 -82.9592 330° Northwest 442 509 37,900 550 Climbing Jacksonville Center
Tue 12:54:39 PM 29.2581 -83.0283 330° Northwest 442 509 38,000 50 Climbing Jacksonville Center
Tue 12:55:38 PM 29.3625 -83.0975 330° Northwest 442 509 38,000 -50 Level Jacksonville Center
Tue 12:56:39 PM 29.4686 -83.1692 330° Northwest 437 503 37,900 -50 Descending Jacksonville Center
Tue 12:57:39 PM 29.5792 -83.2411 330° Northwest 444 511 37,900  Level Jacksonville Center
Tue 12:58:39 PM 29.6814 -83.3108 329° Northwest 438 504 37,900  Level Jacksonville Center
Tue 12:59:39 PM 29.7894 -83.3831 330° Northwest 438 504 37,900  Level Jacksonville Center
Tue 01:00:39 PM 29.9061 -83.4606 330° Northwest 443 510 37,900  Level Jacksonville Center
Tue 01:01:39 PM 30.0122 -83.5306 330° Northwest 443 510 37,900  Level Jacksonville Center
Tue 01:02:39 PM 30.1183 -83.6008 330° Northwest 443 510 37,900  Level Jacksonville Center
Tue 01:03:39 PM 30.2244 -83.6739 329° Northwest 443 510 37,900  Level Jacksonville Center
Tue 01:04:38 PM 30.3306 -83.7444 330° Northwest 438 504 37,900  Level Jacksonville Center
Tue 01:05:39 PM 30.4364 -83.8153 330° Northwest 443 510 37,900 50 Level Jacksonville Center
Tue 01:06:39 PM 30.5403 -83.8886 329° Northwest 437 503 38,000 50 Climbing Jacksonville Center
Tue 01:07:39 PM 30.6317 -83.9500 330° Northwest 431 496 38,000  Level Jacksonville Center
Tue 01:08:39 PM 30.7356 -84.0236 329° Northwest 431 496 38,000 -150 Level Jacksonville Center
Tue 01:09:39 PM 30.8414 -84.0950 330° Northwest 431 496 37,700 -700 Descending Jacksonville Center
Tue 01:10:39 PM 30.9450 -84.1667 329° Northwest 431 496 36,600 -1,400 Descending Jacksonville Center
Tue 01:11:39 PM 31.0486 -84.2358 330° Northwest 426 490 34,900 -1,300 Descending Jacksonville Center
Tue 01:12:39 PM 31.1503 -84.3078 329° Northwest 426 490 34,000 -271 Descending Jacksonville Center
Tue 01:14:58 PM 31.3972 -84.4792 329° Northwest 426 490 34,000  Level Atlanta Center
Tue 01:15:58 PM 31.4972 -84.5478 330° Northwest 421 484 34,000  Level Atlanta Center
Tue 01:16:58 PM 31.5969 -84.6217 328° Northwest 421 484 34,000  Level Atlanta Center
Tue 01:17:58 PM 31.6989 -84.6906 330° Northwest 421 484 34,000 -229 Level Atlanta Center
Tue 01:19:09 PM 31.7864 -84.7522 329° Northwest 421 484 33,500 -1,136 Descending Atlanta Center
Tue 01:20:10 PM 31.9131 -84.8267 333° Northwest 421 484 31,500 -1,785 Descending Atlanta Center
Tue 01:21:10 PM 32.0319 -84.8644 345° North 427 491 29,900 -1,850 Descending Atlanta Center
Tue 01:22:10 PM 32.1486 -84.9025 345° North 427 491 27,800 -1,450 Descending Atlanta Center
Tue 01:23:10 PM 32.2714 -84.9403 345° North 421 484 27,000 -850 Descending Atlanta Center
Tue 01:24:10 PM 32.3756 -84.9758 344° North 401 461 26,100 -1,050 Descending Atlanta Center
Tue 01:25:10 PM 32.4775 -85.0114 344° North 386 444 24,900 -1,050 Descending Atlanta Center
Tue 01:26:10 PM 32.5858 -85.0472 344° North 386 444 24,000 -550 Descending Atlanta Center
Tue 01:27:10 PM 32.6817 -85.0728 347° North 371 427 23,800 -900 Descending Atlanta Center
Tue 01:28:10 PM 32.7692 -85.0714 North 371 427 22,200 -2,000 Descending Atlanta Center
Tue 01:29:10 PM 32.8842 -85.0628 North 371 427 19,800 -2,200 Descending Atlanta Center
Tue 01:30:10 PM 32.9928 -85.0492 North 366 421 17,800 -2,050 Descending Atlanta Center
Tue 01:31:10 PM 33.0889 -85.0406 North 355 409 15,700 -1,900 Descending Atlanta Center
Tue 01:32:10 PM 33.1808 -85.0317 North 338 389 14,000 -900 Descending Atlanta Center
Tue 01:33:10 PM 33.2503 -84.9556 42° Northeast 313 360 13,900 -500 Descending Atlanta Center
Tue 01:34:10 PM 33.3072 -84.8664 53° Northeast 318 366 13,000 -1,000 Descending Atlanta Center
Tue 01:35:10 PM 33.3703 -84.7825 48° Northeast 328 377 11,900 -550 Descending Atlanta Center
Tue 01:36:10 PM 33.4336 -84.6961 49° Northeast 333 383 11,900  Level Atlanta Center
Tue 01:37:10 PM 33.4944 -84.6142 48° Northeast 333 383 11,900 -100 Level Atlanta Center
Tue 01:38:10 PM 33.5428 -84.5422 51° Northeast 291 335 11,700 -605 Descending Atlanta Center
Tue 01:39:09 PM 33.5500 -84.4500 85° East 259 298 10,700 -1,109 Descending Atlanta TRACON
Tue 01:40:09 PM 33.5500 -84.3667 90° East 253 291 9,500 -1,350 Descending Atlanta TRACON
Tue 01:41:09 PM 33.5500 -84.2833 90° East 238 274 8,000 -1,636 Descending Atlanta TRACON
Tue 01:42:10 PM 33.5500 -84.2167 90° East 230 265 6,200 -1,736 Descending Atlanta TRACON
Tue 01:43:10 PM 33.5500 -84.1333 90° East 223 257 4,500 -1,600 Descending Atlanta TRACON
Tue 01:44:10 PM 33.5667 -84.0833 68° East 229 264 3,000 -800 Descending Atlanta TRACON
Tue 01:45:10 PM 33.6000 -84.1500 301° West 217 250 2,900  Descending Atlanta TRACON
Tue 01:46:10 PM 33.6167 -84.2167 287° West 207 238 3,000 50 Climbing Atlanta TRACON
Tue 01:47:10 PM 33.6167 -84.2667 270° West 197 227 3,000  Level Atlanta TRACON

Login

Don't have an account? Register now (free) for customized features, flight alerts, and more!